Time;durP1;ratioP1;P1;durP2;ratioP2;P2;SDS_P1;SDS_P2;PMS_P1;PMS_P2;Temp;Humidity;BMP_temperature;BMP_pressure;BME280_temperature;BME280_humidity;BME280_pressure;Samples;Min_cycle;Max_cycle;Signal;HPM_P1;HPM_P2
2022/07/28 00:01:38;;;;;;;;;;;25.60;99.90;;;;;;5098087;27;19912;-71
2022/07/28 00:04:04;;;;;;;;;;;25.60;99.90;;;;;;5099398;27;19942;-70
2022/07/28 00:06:29;;;;;;;;;;;25.50;99.90;;;;;;5099431;28;19945;-72
2022/07/28 00:08:55;;;;;;;;;;;25.40;99.90;;;;;;5098467;27;19981;-72
2022/07/28 00:11:21;;;;;;;;;;;25.50;99.90;;;;;;5100342;27;19924;-71
2022/07/28 00:13:46;;;;;;;;;;;25.50;99.90;;;;;;5080203;28;20356;-72
2022/07/28 00:16:12;;;;;;;;;;;25.50;99.90;;;;;;5091944;28;19912;-72
2022/07/28 00:18:38;;;;;;;;;;;25.50;99.90;;;;;;5096462;27;19919;-72
2022/07/28 00:21:04;;;;;;;;;;;25.50;99.90;;;;;;5101744;27;19923;-73
2022/07/28 00:23:29;;;;;;;;;;;25.30;99.90;;;;;;5097538;27;19912;-73
2022/07/28 00:25:55;;;;;;;;;;;25.40;99.90;;;;;;5095941;27;20368;-71
2022/07/28 00:28:20;;;;;;;;;;;25.40;99.90;;;;;;5100235;27;19955;-71
2022/07/28 00:30:46;;;;;;;;;;;25.30;99.90;;;;;;5097820;27;19970;-72
2022/07/28 00:33:11;;;;;;;;;;;25.20;99.90;;;;;;5097343;28;19916;-71
2022/07/28 00:35:37;;;;;;;;;;;25.20;99.90;;;;;;5097408;28;20303;-73
2022/07/28 00:38:03;;;;;;;;;;;25.30;99.90;;;;;;5097765;27;19912;-72
2022/07/28 00:43:13;;;;;;;;;;;25.20;99.90;;;;;;5099749;27;20001;-72
2022/07/28 00:45:38;;;;;;;;;;;25.30;99.90;;;;;;5094963;27;19912;-73
2022/07/28 00:48:04;;;;;;;;;;;25.30;99.90;;;;;;5119145;27;19989;-73
2022/07/28 00:50:29;;;;;;;;;;;25.30;99.90;;;;;;5100468;27;20544;-73
2022/07/28 00:52:56;;;;;;;;;;;25.30;99.90;;;;;;5101915;27;19928;-73
2022/07/28 00:55:22;;;;;;;;;;;25.20;99.90;;;;;;5097031;28;19946;-74
2022/07/28 00:57:47;;;;;;;;;;;25.20;99.90;;;;;;5098638;27;19912;-73
2022/07/28 01:00:13;;;;;;;;;;;25.30;99.90;;;;;;5099997;27;20385;-73
2022/07/28 01:02:39;;;;;;;;;;;25.30;99.90;;;;;;5099623;27;19916;-72
2022/07/28 01:05:05;;;;;;;;;;;25.20;99.90;;;;;;5103960;27;19929;-71
2022/07/28 01:07:36;;;;;;;;;;;25.10;99.90;;;;;;5098200;27;19999;-72
2022/07/28 01:10:05;;;;;;;;;;;25.10;99.90;;;;;;5126467;27;19932;-73
2022/07/28 01:12:37;;;;;;;;;;;25.10;99.90;;;;;;5142512;27;20017;-74
2022/07/28 01:15:05;;;;;;;;;;;25.00;99.90;;;;;;5108558;27;19915;-71
2022/07/28 01:17:49;;;;;;;;;;;25.10;99.90;;;;;;5101212;27;19915;-73
2022/07/28 01:20:17;;;;;;;;;;;25.20;99.90;;;;;;5104747;27;20242;-74
2022/07/28 01:23:00;;;;;;;;;;;25.20;99.90;;;;;;5082745;28;19926;-71
2022/07/28 01:25:37;;;;;;;;;;;25.30;99.90;;;;;;5100324;28;19920;-73
2022/07/28 01:28:15;;;;;;;;;;;25.30;99.90;;;;;;5105908;27;20014;-74
2022/07/28 01:30:42;;;;;;;;;;;25.20;99.90;;;;;;5098398;28;19915;-73
2022/07/28 01:33:20;;;;;;;;;;;25.20;99.90;;;;;;5103536;27;19956;-75
2022/07/28 01:35:52;;;;;;;;;;;25.30;99.90;;;;;;5085244;28;19916;-75
2022/07/28 01:38:18;;;;;;;;;;;25.30;99.90;;;;;;5111213;28;19912;-74
2022/07/28 01:40:45;;;;;;;;;;;25.30;99.90;;;;;;5122966;28;19941;-73
2022/07/28 01:43:12;;;;;;;;;;;25.30;99.90;;;;;;5123413;27;19918;-74
2022/07/28 01:45:39;;;;;;;;;;;25.30;99.90;;;;;;5113145;28;19916;-74
2022/07/28 01:48:06;;;;;;;;;;;25.30;99.90;;;;;;5108021;28;19911;-72
2022/07/28 01:50:32;;;;;;;;;;;25.30;99.90;;;;;;5110424;27;19916;-73
2022/07/28 01:52:58;;;;;;;;;;;25.30;99.90;;;;;;5107970;27;19961;-74
2022/07/28 01:55:25;;;;;;;;;;;25.30;99.90;;;;;;5111791;27;19951;-74
2022/07/28 01:57:53;;;;;;;;;;;25.20;99.90;;;;;;5119374;27;19912;-74
2022/07/28 02:00:19;;;;;;;;;;;25.20;99.90;;;;;;5106483;27;19920;-73
2022/07/28 02:02:47;;;;;;;;;;;25.10;99.90;;;;;;5082006;28;19920;-74
2022/07/28 02:05:15;;;;;;;;;;;25.10;99.90;;;;;;5100769;27;19926;-74
2022/07/28 02:07:41;;;;;;;;;;;25.10;99.90;;;;;;5096041;28;19927;-74
2022/07/28 02:10:08;;;;;;;;;;;25.10;99.90;;;;;;5096486;28;19985;-75
2022/07/28 02:12:34;;;;;;;;;;;25.10;99.90;;;;;;5095597;28;19923;-74
2022/07/28 02:15:01;;;;;;;;;;;25.00;99.90;;;;;;5096677;27;19911;-73
2022/07/28 02:17:29;;;;;;;;;;;25.00;99.90;;;;;;5096795;27;20372;-72
2022/07/28 02:19:56;;;;;;;;;;;24.90;99.90;;;;;;5094458;28;20011;-73
2022/07/28 02:22:22;;;;;;;;;;;24.90;99.90;;;;;;5097465;28;19912;-75
2022/07/28 02:24:48;;;;;;;;;;;24.80;99.90;;;;;;5092680;28;20012;-74
2022/07/28 02:27:14;;;;;;;;;;;24.80;99.90;;;;;;5094765;28;19975;-73
2022/07/28 02:29:51;;;;;;;;;;;24.80;99.90;;;;;;5091842;28;19920;-74
2022/07/28 02:32:21;;;;;;;;;;;24.80;99.90;;;;;;5096646;28;19916;-73
2022/07/28 02:34:48;;;;;;;;;;;24.80;99.90;;;;;;5095464;28;19943;-74
2022/07/28 02:37:14;;;;;;;;;;;24.80;99.90;;;;;;5098464;28;19923;-73
2022/07/28 02:39:45;;;;;;;;;;;24.70;99.90;;;;;;5095027;28;19920;-74
2022/07/28 02:42:16;;;;;;;;;;;24.70;99.90;;;;;;5096088;28;19962;-73
2022/07/28 02:44:44;;;;;;;;;;;24.60;99.90;;;;;;5099989;27;20002;-72
2022/07/28 02:47:11;;;;;;;;;;;24.60;99.90;;;;;;5077166;28;20006;-73
2022/07/28 02:49:37;;;;;;;;;;;24.60;99.90;;;;;;5094601;28;19969;-74
2022/07/28 02:52:06;;;;;;;;;;;24.50;99.90;;;;;;5099215;27;19912;-74
2022/07/28 02:54:33;;;;;;;;;;;24.60;99.90;;;;;;5099316;27;19927;-73
2022/07/28 02:56:59;;;;;;;;;;;24.50;99.90;;;;;;5099129;27;19934;-73
2022/07/28 02:59:25;;;;;;;;;;;24.50;99.90;;;;;;5101833;28;20369;-74
2022/07/28 03:01:51;;;;;;;;;;;24.50;99.90;;;;;;5080847;27;19927;-73
2022/07/28 03:04:55;;;;;;;;;;;24.50;99.90;;;;;;5100053;28;19918;-73
2022/07/28 03:07:03;;;;;;;;;;;24.50;99.90;;;;;;5100616;27;19916;-72
2022/07/28 03:09:29;;;;;;;;;;;24.50;99.90;;;;;;5081538;28;19916;-74
2022/07/28 03:11:54;;;;;;;;;;;24.60;99.90;;;;;;5081922;27;19923;-73
2022/07/28 03:14:20;;;;;;;;;;;24.50;99.90;;;;;;5100037;27;20002;-74
2022/07/28 03:16:46;;;;;;;;;;;24.50;99.90;;;;;;5098726;27;21082;-73
2022/07/28 03:19:11;;;;;;;;;;;24.40;99.90;;;;;;5098812;27;19915;-74
2022/07/28 03:21:40;;;;;;;;;;;24.40;99.90;;;;;;5099627;27;19923;-73
2022/07/28 03:24:07;;;;;;;;;;;24.40;99.90;;;;;;5100491;27;19975;-74
2022/07/28 03:26:37;;;;;;;;;;;24.40;99.90;;;;;;5095821;27;19954;-73
2022/07/28 03:29:02;;;;;;;;;;;24.40;99.90;;;;;;5112356;27;20373;-73
2022/07/28 03:31:30;;;;;;;;;;;24.40;99.90;;;;;;5090949;28;20275;-73
2022/07/28 03:33:56;;;;;;;;;;;24.50;99.90;;;;;;5099240;28;20275;-74
2022/07/28 03:36:25;;;;;;;;;;;24.50;99.90;;;;;;5095491;28;20024;-74
2022/07/28 03:38:54;;;;;;;;;;;24.50;99.90;;;;;;5096712;28;19978;-73
2022/07/28 03:41:20;;;;;;;;;;;24.50;99.90;;;;;;5098172;28;19952;-74
2022/07/28 03:43:46;;;;;;;;;;;24.40;99.90;;;;;;5099424;28;19916;-74
2022/07/28 03:46:12;;;;;;;;;;;24.50;99.90;;;;;;5095558;28;19916;-74
2022/07/28 03:48:37;;;;;;;;;;;24.50;99.90;;;;;;5097592;28;19912;-74
2022/07/28 03:51:03;;;;;;;;;;;24.50;99.90;;;;;;5100014;27;20409;-75
2022/07/28 03:53:29;;;;;;;;;;;24.50;99.90;;;;;;5081722;28;19956;-74
2022/07/28 03:55:55;;;;;;;;;;;24.50;99.90;;;;;;5098563;28;19916;-73
2022/07/28 03:58:25;;;;;;;;;;;24.50;99.90;;;;;;5099081;28;19912;-74
2022/07/28 04:00:51;;;;;;;;;;;24.60;99.90;;;;;;5100713;28;19926;-74
2022/07/28 04:03:17;;;;;;;;;;;24.60;99.90;;;;;;5098964;28;19919;-74
2022/07/28 04:05:43;;;;;;;;;;;24.50;99.90;;;;;;5096335;28;19912;-74
2022/07/28 04:08:09;;;;;;;;;;;24.40;99.90;;;;;;5096579;28;19939;-74
2022/07/28 04:10:34;;;;;;;;;;;24.50;99.90;;;;;;5096320;28;19995;-75
2022/07/28 04:13:00;;;;;;;;;;;24.60;99.90;;;;;;5097361;28;20262;-75
2022/07/28 04:15:26;;;;;;;;;;;24.50;99.90;;;;;;5097172;28;19927;-75
2022/07/28 04:17:53;;;;;;;;;;;24.50;99.90;;;;;;5076194;28;20145;-74
2022/07/28 04:20:19;;;;;;;;;;;24.60;99.90;;;;;;5097887;28;20150;-74
2022/07/28 04:22:45;;;;;;;;;;;24.60;99.90;;;;;;5080840;28;20368;-74
2022/07/28 04:25:14;;;;;;;;;;;24.60;99.90;;;;;;5096205;28;19956;-74
2022/07/28 04:27:40;;;;;;;;;;;24.80;99.90;;;;;;5098276;28;19912;-74
2022/07/28 04:30:07;;;;;;;;;;;24.70;99.90;;;;;;5094256;28;19924;-74
2022/07/28 04:32:33;;;;;;;;;;;24.80;99.90;;;;;;5095408;28;19951;-74
2022/07/28 04:34:59;;;;;;;;;;;24.80;99.90;;;;;;5093595;28;19963;-74
2022/07/28 04:37:24;;;;;;;;;;;24.80;99.90;;;;;;5097817;28;19913;-74
2022/07/28 04:39:50;;;;;;;;;;;24.90;99.90;;;;;;5096404;28;19911;-75
2022/07/28 04:42:19;;;;;;;;;;;24.90;99.90;;;;;;5101232;28;20011;-74
2022/07/28 04:44:45;;;;;;;;;;;24.80;99.90;;;;;;5098337;28;19912;-74
2022/07/28 04:47:15;;;;;;;;;;;24.90;99.90;;;;;;5097089;28;20266;-74
2022/07/28 04:49:41;;;;;;;;;;;25.00;99.90;;;;;;5106622;28;19926;-74
2022/07/28 04:52:09;;;;;;;;;;;24.90;99.90;;;;;;5094879;28;19908;-75
2022/07/28 04:54:35;;;;;;;;;;;25.00;99.90;;;;;;5099885;28;19954;-74
2022/07/28 04:57:01;;;;;;;;;;;25.10;99.90;;;;;;5112608;28;19914;-75
2022/07/28 04:59:26;;;;;;;;;;;25.10;99.90;;;;;;5112526;28;19908;-75
2022/07/28 05:01:52;;;;;;;;;;;25.00;99.90;;;;;;5112592;28;19908;-75
2022/07/28 05:04:18;;;;;;;;;;;24.90;99.90;;;;;;5100491;28;19922;-75
2022/07/28 05:06:43;;;;;;;;;;;24.90;99.90;;;;;;5095815;28;20053;-75
2022/07/28 05:09:09;;;;;;;;;;;24.90;99.90;;;;;;5096061;28;19923;-74
2022/07/28 05:11:35;;;;;;;;;;;24.80;99.90;;;;;;5098019;28;19916;-75
2022/07/28 05:14:01;;;;;;;;;;;24.80;99.90;;;;;;5096442;28;19919;-74
2022/07/28 05:16:27;;;;;;;;;;;24.90;99.90;;;;;;5074731;28;20400;-74
2022/07/28 05:18:53;;;;;;;;;;;25.00;99.90;;;;;;5096686;28;19920;-75
2022/07/28 05:21:19;;;;;;;;;;;25.00;99.90;;;;;;5095807;28;19966;-76
2022/07/28 05:23:44;;;;;;;;;;;25.10;99.90;;;;;;5095828;28;20317;-75
2022/07/28 05:26:10;;;;;;;;;;;25.20;99.90;;;;;;5101350;27;19966;-74
2022/07/28 05:28:36;;;;;;;;;;;25.30;99.90;;;;;;5095146;28;19916;-74
2022/07/28 05:31:02;;;;;;;;;;;25.40;99.90;;;;;;5114157;27;19965;-74
2022/07/28 05:33:29;;;;;;;;;;;25.60;99.90;;;;;;5120696;27;20986;-72
2022/07/28 05:35:59;;;;;;;;;;;25.60;99.90;;;;;;5099464;27;19911;-75
2022/07/28 05:38:25;;;;;;;;;;;25.90;99.90;;;;;;5097178;27;20259;-73
2022/07/28 05:40:51;;;;;;;;;;;26.10;99.90;;;;;;5096032;27;19919;-73
2022/07/28 05:43:17;;;;;;;;;;;26.10;99.90;;;;;;5102925;27;19926;-74
2022/07/28 05:45:42;;;;;;;;;;;26.00;99.90;;;;;;5094874;28;19923;-73
2022/07/28 05:48:08;;;;;;;;;;;26.00;99.90;;;;;;5082605;27;19932;-73
2022/07/28 05:50:34;;;;;;;;;;;26.00;99.90;;;;;;5099654;28;19916;-73
2022/07/28 05:52:59;;;;;;;;;;;26.00;99.90;;;;;;5099155;27;20362;-73
2022/07/28 05:55:25;;;;;;;;;;;26.00;99.90;;;;;;5096804;28;20657;-73
2022/07/28 05:57:51;;;;;;;;;;;26.20;99.90;;;;;;5100022;27;19939;-72
2022/07/28 06:00:18;;;;;;;;;;;26.20;99.90;;;;;;5097849;27;20338;-73
2022/07/28 06:02:44;;;;;;;;;;;26.30;99.90;;;;;;5096663;28;19912;-73
2022/07/28 06:05:10;;;;;;;;;;;26.30;99.90;;;;;;5096864;27;20425;-72
2022/07/28 06:07:36;;;;;;;;;;;26.30;99.90;;;;;;5098121;27;20335;-72
2022/07/28 06:10:02;;;;;;;;;;;26.20;99.90;;;;;;5097658;27;19915;-72
2022/07/28 06:12:27;;;;;;;;;;;26.30;99.90;;;;;;5096504;28;20371;-71
2022/07/28 06:14:53;;;;;;;;;;;26.30;99.90;;;;;;5095756;27;20752;-73
2022/07/28 06:17:18;;;;;;;;;;;26.30;99.90;;;;;;5094004;28;19916;-72
2022/07/28 06:19:44;;;;;;;;;;;26.40;99.90;;;;;;5104993;27;19911;-72
2022/07/28 06:22:10;;;;;;;;;;;26.60;99.90;;;;;;5112987;27;19920;-73
2022/07/28 06:24:35;;;;;;;;;;;26.60;99.90;;;;;;5098967;28;19920;-72
2022/07/28 06:27:01;;;;;;;;;;;26.70;99.90;;;;;;5097200;28;19912;-73
2022/07/28 06:29:27;;;;;;;;;;;26.60;99.90;;;;;;5094358;28;20345;-73
2022/07/28 06:31:53;;;;;;;;;;;26.60;99.90;;;;;;5104593;28;19983;-72
2022/07/28 06:34:19;;;;;;;;;;;26.40;99.90;;;;;;5112251;28;19912;-72
2022/07/28 06:36:44;;;;;;;;;;;26.40;99.90;;;;;;5116971;28;19983;-72
2022/07/28 06:39:11;;;;;;;;;;;26.50;99.90;;;;;;5112979;28;19911;-72
2022/07/28 06:41:40;;;;;;;;;;;26.50;99.90;;;;;;5105327;28;19916;-70
2022/07/28 06:44:06;;;;;;;;;;;26.60;99.90;;;;;;5106476;28;19966;-71
2022/07/28 06:46:32;;;;;;;;;;;26.60;99.90;;;;;;5117690;28;19920;-75
2022/07/28 06:48:58;;;;;;;;;;;26.40;99.90;;;;;;5106716;28;19912;-72
2022/07/28 06:51:23;;;;;;;;;;;26.40;99.90;;;;;;5105191;28;19941;-73
2022/07/28 06:53:49;;;;;;;;;;;26.40;99.90;;;;;;5096387;28;19916;-72
2022/07/28 06:56:15;;;;;;;;;;;26.50;99.90;;;;;;5102837;28;19959;-73
2022/07/28 06:58:40;;;;;;;;;;;26.50;99.90;;;;;;5088993;28;19920;-73
2022/07/28 07:01:07;;;;;;;;;;;26.40;99.90;;;;;;5117000;28;20002;-72
2022/07/28 07:03:34;;;;;;;;;;;26.40;99.90;;;;;;5125531;28;20284;-74
2022/07/28 07:06:00;;;;;;;;;;;26.40;99.90;;;;;;5123773;28;20007;-73
2022/07/28 07:08:25;;;;;;;;;;;26.30;99.90;;;;;;5107162;28;19988;-73
2022/07/28 07:10:51;;;;;;;;;;;26.40;99.90;;;;;;5104253;28;19986;-72
2022/07/28 07:13:17;;;;;;;;;;;26.60;99.90;;;;;;5108142;28;19911;-72
2022/07/28 07:15:42;;;;;;;;;;;26.60;99.90;;;;;;5107914;28;19981;-71
2022/07/28 07:18:08;;;;;;;;;;;26.60;99.90;;;;;;5112866;28;20390;-72
2022/07/28 07:20:33;;;;;;;;;;;26.70;99.90;;;;;;5109558;28;20018;-70
2022/07/28 07:22:59;;;;;;;;;;;26.80;99.90;;;;;;5107612;28;20304;-73
2022/07/28 07:25:24;;;;;;;;;;;26.70;99.90;;;;;;5099155;28;20189;-72
2022/07/28 07:27:50;;;;;;;;;;;26.90;99.90;;;;;;5105957;28;19916;-71
2022/07/28 07:30:16;;;;;;;;;;;27.00;99.90;;;;;;5121524;27;20373;-71
2022/07/28 07:32:42;;;;;;;;;;;27.20;99.90;;;;;;5126078;27;19911;-71
2022/07/28 07:35:08;;;;;;;;;;;27.30;99.90;;;;;;5134493;27;19911;-71
2022/07/28 07:37:33;;;;;;;;;;;27.30;99.90;;;;;;5114731;27;19974;-71
2022/07/28 07:39:59;;;;;;;;;;;27.40;99.90;;;;;;5117656;27;19913;-71
2022/07/28 07:42:25;;;;;;;;;;;27.50;99.90;;;;;;5112185;27;20430;-71
2022/07/28 07:44:51;;;;;;;;;;;27.60;99.90;;;;;;5125560;27;19908;-70
2022/07/28 07:47:17;;;;;;;;;;;27.60;99.90;;;;;;5102614;27;19912;-71
2022/07/28 07:49:42;;;;;;;;;;;27.70;99.90;;;;;;5129921;27;19916;-72
2022/07/28 07:52:08;;;;;;;;;;;27.70;99.90;;;;;;5112960;27;19912;-71
2022/07/28 07:54:34;;;;;;;;;;;27.80;99.90;;;;;;5133008;27;20286;-72
2022/07/28 07:56:59;;;;;;;;;;;27.70;99.90;;;;;;5132802;27;19908;-71
2022/07/28 07:59:25;;;;;;;;;;;27.80;99.90;;;;;;5114616;27;19911;-71
2022/07/28 08:01:53;;;;;;;;;;;27.80;99.90;;;;;;5115439;27;19912;-72
2022/07/28 08:04:20;;;;;;;;;;;27.80;99.90;;;;;;5088459;28;19911;-72
2022/07/28 08:06:46;;;;;;;;;;;27.90;99.90;;;;;;5112296;27;19927;-70
2022/07/28 08:09:13;;;;;;;;;;;28.00;99.90;;;;;;5116454;27;19923;-72
2022/07/28 08:11:38;;;;;;;;;;;28.10;99.90;;;;;;5112317;27;20090;-72
2022/07/28 08:14:04;;;;;;;;;;;28.00;99.90;;;;;;5118424;27;19918;-71
2022/07/28 08:16:29;;;;;;;;;;;28.10;99.90;;;;;;5127805;27;19907;-72
2022/07/28 08:18:57;;;;;;;;;;;28.10;99.90;;;;;;5118775;27;20006;-73
2022/07/28 08:21:26;;;;;;;;;;;28.20;99.90;;;;;;5107882;27;19954;-73
2022/07/28 08:23:54;;;;;;;;;;;28.30;99.90;;;;;;5113944;27;20335;-73
2022/07/28 08:26:21;;;;;;;;;;;28.40;99.90;;;;;;5114346;27;19912;-72
2022/07/28 08:28:46;;;;;;;;;;;28.50;99.90;;;;;;5130900;27;20331;-73
2022/07/28 08:31:12;;;;;;;;;;;28.60;99.90;;;;;;5113739;27;19919;-72
2022/07/28 08:33:37;;;;;;;;;;;28.70;99.90;;;;;;5112639;28;19999;-73
2022/07/28 08:36:03;;;;;;;;;;;28.60;99.90;;;;;;5107818;28;20006;-71
2022/07/28 08:38:29;;;;;;;;;;;28.50;99.90;;;;;;5090006;28;19912;-71
2022/07/28 08:40:55;;;;;;;;;;;28.50;99.90;;;;;;5110448;28;19954;-73
2022/07/28 08:43:31;;;;;;;;;;;28.70;99.90;;;;;;5111422;27;19920;-73
2022/07/28 08:45:58;;;;;;;;;;;28.80;99.90;;;;;;5114880;27;20021;-72
2022/07/28 08:48:23;;;;;;;;;;;28.80;99.90;;;;;;5106071;28;19933;-72
2022/07/28 08:50:50;;;;;;;;;;;28.90;99.90;;;;;;5110444;28;19915;-71
2022/07/28 08:53:16;;;;;;;;;;;28.90;99.90;;;;;;5106582;28;19938;-71
2022/07/28 08:55:42;;;;;;;;;;;28.90;99.90;;;;;;5112285;28;20526;-71
2022/07/28 08:58:09;;;;;;;;;;;29.00;99.90;;;;;;5112576;28;19990;-71
2022/07/28 09:00:35;;;;;;;;;;;29.00;99.90;;;;;;5119470;27;19912;-72
2022/07/28 09:03:02;;;;;;;;;;;29.10;99.90;;;;;;5111436;27;19918;-72
2022/07/28 09:05:28;;;;;;;;;;;29.10;99.90;;;;;;5089028;28;20293;-71
2022/07/28 09:07:54;;;;;;;;;;;29.10;99.90;;;;;;5130068;27;19915;-72
2022/07/28 09:10:20;;;;;;;;;;;29.10;99.90;;;;;;5086943;28;19924;-71
2022/07/28 09:12:45;;;;;;;;;;;29.20;99.90;;;;;;5124688;27;19912;-73
2022/07/28 09:15:15;;;;;;;;;;;29.00;99.90;;;;;;5095032;27;20395;-71
2022/07/28 09:17:41;;;;;;;;;;;29.00;99.90;;;;;;5116638;27;19930;-71
2022/07/28 09:20:07;;;;;;;;;;;29.10;99.90;;;;;;5121535;27;20293;-72
2022/07/28 09:22:33;;;;;;;;;;;29.30;99.90;;;;;;5113806;27;20025;-70
2022/07/28 09:25:01;;;;;;;;;;;29.40;99.90;;;;;;5110112;27;19912;-73
2022/07/28 09:27:26;;;;;;;;;;;29.50;99.90;;;;;;5104288;28;19912;-71
2022/07/28 09:29:59;;;;;;;;;;;29.60;99.90;;;;;;5100335;27;19916;-72
2022/07/28 09:32:26;;;;;;;;;;;29.60;99.90;;;;;;5117872;27;19912;-71
2022/07/28 09:34:51;;;;;;;;;;;29.50;99.90;;;;;;5097893;28;20361;-72
2022/07/28 09:37:24;;;;;;;;;;;29.40;99.90;;;;;;5115158;27;19919;-71
2022/07/28 09:39:51;;;;;;;;;;;29.40;99.90;;;;;;5107911;28;20030;-70
2022/07/28 09:42:17;;;;;;;;;;;29.50;99.90;;;;;;5088639;28;19916;-72
2022/07/28 09:44:44;;;;;;;;;;;29.70;99.90;;;;;;5110000;28;20086;-71
2022/07/28 09:47:22;;;;;;;;;;;29.80;99.90;;;;;;5120720;27;19920;-72
2022/07/28 09:49:48;;;;;;;;;;;30.00;99.90;;;;;;5104816;28;19994;-71
2022/07/28 09:52:25;;;;;;;;;;;30.10;99.90;;;;;;5120921;27;20011;-69
2022/07/28 09:55:01;;;;;;;;;;;30.20;99.90;;;;;;5108794;28;19908;-71
2022/07/28 09:57:27;;;;;;;;;;;29.80;99.90;;;;;;5110505;28;19912;-71
2022/07/28 09:59:53;;;;;;;;;;;29.80;99.90;;;;;;5109869;28;19978;-73
2022/07/28 10:02:37;;;;;;;;;;;30.00;99.90;;;;;;5107410;28;20014;-71
2022/07/28 10:05:03;;;;;;;;;;;30.10;99.90;;;;;;5105328;28;19912;-72
2022/07/28 10:07:29;;;;;;;;;;;30.20;99.90;;;;;;5081478;28;19912;-69
2022/07/28 10:09:56;;;;;;;;;;;30.10;99.90;;;;;;5109549;28;19912;-72
2022/07/28 10:12:29;;;;;;;;;;;30.20;99.90;;;;;;5104790;28;20330;-70
2022/07/28 10:14:57;;;;;;;;;;;30.30;99.90;;;;;;5084236;28;19908;-71
2022/07/28 10:17:25;;;;;;;;;;;30.50;99.90;;;;;;5109653;28;20361;-70
2022/07/28 10:19:53;;;;;;;;;;;30.70;99.90;;;;;;5107710;28;20258;-71
2022/07/28 10:22:20;;;;;;;;;;;30.90;99.90;;;;;;5111739;28;20014;-71
2022/07/28 10:24:48;;;;;;;;;;;31.00;99.90;;;;;;5101549;28;19916;-71
2022/07/28 10:27:14;;;;;;;;;;;31.20;99.90;;;;;;5109711;28;19915;-70
2022/07/28 10:29:42;;;;;;;;;;;31.20;99.90;;;;;;5115322;28;19916;-69
2022/07/28 10:32:08;;;;;;;;;;;31.10;99.90;;;;;;5113019;28;19994;-71
2022/07/28 10:34:36;;;;;;;;;;;30.90;99.90;;;;;;5113070;28;20325;-71
2022/07/28 10:37:03;;;;;;;;;;;30.90;99.90;;;;;;5128735;28;20106;-71
2022/07/28 10:39:34;;;;;;;;;;;30.80;99.90;;;;;;5111900;28;19907;-70
2022/07/28 10:42:00;;;;;;;;;;;30.90;99.90;;;;;;5096429;28;19912;-71
2022/07/28 10:44:26;;;;;;;;;;;30.90;99.90;;;;;;5115536;28;19911;-71
2022/07/28 10:46:52;;;;;;;;;;;31.00;99.90;;;;;;5123835;28;19994;-70
2022/07/28 10:49:18;;;;;;;;;;;31.10;99.90;;;;;;5109891;28;19960;-71
2022/07/28 10:51:45;;;;;;;;;;;31.40;99.90;;;;;;5111274;28;20460;-69
2022/07/28 10:54:32;;;;;;;;;;;31.40;99.90;;;;;;5111977;28;19922;-71
2022/07/28 10:56:59;;;;;;;;;;;31.30;99.90;;;;;;5094904;28;19916;-70
2022/07/28 10:59:34;;;;;;;;;;;31.00;99.90;;;;;;5111376;28;19912;-73
2022/07/28 11:01:59;;;;;;;;;;;31.10;99.90;;;;;;5104875;28;19914;-71
2022/07/28 11:04:46;;;;;;;;;;;31.20;99.90;;;;;;5113481;28;19998;-70
2022/07/28 11:07:16;;;;;;;;;;;31.30;99.90;;;;;;5107513;27;20285;-68
2022/07/28 11:09:42;;;;;;;;;;;31.40;99.90;;;;;;5116633;27;19980;-71
2022/07/28 11:12:10;;;;;;;;;;;31.70;99.90;;;;;;5135448;27;20441;-70
2022/07/28 11:14:36;;;;;;;;;;;31.80;99.90;;;;;;5091935;27;19916;-72
2022/07/28 11:17:05;;;;;;;;;;;31.80;99.90;;;;;;5111222;28;20061;-73
2022/07/28 11:19:43;;;;;;;;;;;31.90;99.90;;;;;;5116413;28;19914;-70
2022/07/28 11:22:14;;;;;;;;;;;32.10;99.90;;;;;;5116941;28;19908;-71
2022/07/28 11:24:55;;;;;;;;;;;32.20;99.90;;;;;;5115909;28;20076;-70
2022/07/28 11:27:40;;;;;;;;;;;32.50;99.90;;;;;;5130662;27;19915;-71
2022/07/28 11:30:06;;;;;;;;;;;32.80;99.90;;;;;;5135341;27;19919;-70
2022/07/28 11:32:57;;;;;;;;;;;32.90;99.90;;;;;;5105884;28;19916;-70
2022/07/28 11:35:23;;;;;;;;;;;33.00;99.90;;;;;;5099645;27;19919;-70
2022/07/28 11:38:01;;;;;;;;;;;32.90;99.90;;;;;;5114124;28;19907;-70
2022/07/28 11:40:29;;;;;;;;;;;33.00;99.90;;;;;;5110143;27;19920;-72
2022/07/28 11:43:14;;;;;;;;;;;32.80;99.90;;;;;;5113107;28;19912;-71
2022/07/28 11:45:39;;;;;;;;;;;32.50;99.90;;;;;;5112098;28;19911;-71
2022/07/28 11:48:12;;;;;;;;;;;32.40;99.90;;;;;;5134139;27;19982;-71
2022/07/28 11:50:37;;;;;;;;;;;32.40;99.90;;;;;;5125863;27;19923;-71
2022/07/28 11:53:03;;;;;;;;;;;32.60;99.90;;;;;;5114304;27;19920;-72
2022/07/28 11:55:29;;;;;;;;;;;32.80;99.90;;;;;;5117250;27;20393;-72
2022/07/28 11:57:55;;;;;;;;;;;33.10;99.90;;;;;;5106642;27;20369;-71
2022/07/28 12:00:21;;;;;;;;;;;33.10;99.90;;;;;;5121061;27;19961;-69
2022/07/28 12:02:47;;;;;;;;;;;32.90;99.90;;;;;;5109792;27;19919;-71
2022/07/28 12:05:13;;;;;;;;;;;32.80;99.90;;;;;;5113909;27;19912;-71
2022/07/28 12:07:40;;;;;;;;;;;33.00;99.90;;;;;;5113679;28;20392;-71
2022/07/28 12:10:22;;;;;;;;;;;33.30;99.90;;;;;;5112058;28;19920;-70
2022/07/28 12:12:48;;;;;;;;;;;33.20;99.90;;;;;;5092649;27;20039;-71
2022/07/28 12:15:14;;;;;;;;;;;33.40;99.90;;;;;;5092619;28;19950;-71
2022/07/28 12:17:40;;;;;;;;;;;33.60;99.90;;;;;;5093117;28;19981;-71
2022/07/28 12:20:07;;;;;;;;;;;33.50;99.90;;;;;;5092851;28;19912;-71
2022/07/28 12:22:32;;;;;;;;;;;33.20;99.90;;;;;;5075314;28;19908;-71
2022/07/28 12:24:58;;;;;;;;;;;33.00;99.90;;;;;;5101614;28;19958;-71
2022/07/28 12:27:27;;;;;;;;;;;33.00;99.90;;;;;;5127188;27;19907;-71
2022/07/28 12:30:00;;;;;;;;;;;32.60;99.90;;;;;;5134182;27;19950;-71
2022/07/28 12:32:30;;;;;;;;;;;32.10;99.90;;;;;;5110997;27;19916;-70
2022/07/28 12:34:56;;;;;;;;;;;31.50;99.90;;;;;;5094172;28;19919;-71
2022/07/28 12:37:22;;;;;;;;;;;31.00;99.90;;;;;;5112173;28;20319;-71
2022/07/28 12:39:51;;;;;;;;;;;30.60;99.90;;;;;;5119882;27;20404;-70
2022/07/28 12:42:16;;;;;;;;;;;30.30;99.90;;;;;;5101383;27;19931;-70
2022/07/28 12:44:43;;;;;;;;;;;30.10;99.90;;;;;;5101931;28;19912;-70
2022/07/28 12:47:10;;;;;;;;;;;30.20;99.90;;;;;;5114111;27;20489;-71
2022/07/28 12:49:36;;;;;;;;;;;30.20;99.90;;;;;;5129628;27;19990;-70
2022/07/28 12:52:15;;;;;;;;;;;30.30;99.90;;;;;;5112335;28;19988;-72
2022/07/28 12:54:40;;;;;;;;;;;30.30;99.90;;;;;;5112722;28;19991;-74
2022/07/28 12:57:06;;;;;;;;;;;30.20;99.90;;;;;;5110427;27;20009;-71
2022/07/28 12:59:32;;;;;;;;;;;30.20;99.90;;;;;;5113115;27;19912;-69
2022/07/28 13:01:59;;;;;;;;;;;30.30;99.90;;;;;;5112835;28;20010;-70
2022/07/28 13:04:36;;;;;;;;;;;30.30;99.90;;;;;;5093927;28;20243;-72
2022/07/28 13:07:08;;;;;;;;;;;30.30;99.90;;;;;;5112524;28;19939;-70
2022/07/28 13:09:34;;;;;;;;;;;30.10;99.90;;;;;;5108659;28;21350;-70
2022/07/28 13:12:00;;;;;;;;;;;30.00;99.90;;;;;;5122847;27;19908;-71
2022/07/28 13:14:39;;;;;;;;;;;30.00;99.90;;;;;;5118128;27;20301;-70
2022/07/28 13:17:05;;;;;;;;;;;30.20;99.90;;;;;;5111946;28;19990;-72
2022/07/28 13:19:30;;;;;;;;;;;29.90;99.90;;;;;;5112557;28;19908;-70
2022/07/28 13:21:58;;;;;;;;;;;29.80;99.90;;;;;;5111384;28;19918;-71
2022/07/28 13:24:24;;;;;;;;;;;29.70;99.90;;;;;;5115491;27;19919;-71
2022/07/28 13:26:50;;;;;;;;;;;29.60;99.90;;;;;;5124586;27;20538;-70
2022/07/28 13:29:16;;;;;;;;;;;29.80;99.90;;;;;;5113038;27;19911;-70
2022/07/28 13:31:41;;;;;;;;;;;29.90;99.90;;;;;;5115371;27;19923;-72
2022/07/28 13:34:08;;;;;;;;;;;29.90;99.90;;;;;;5132441;27;20452;-71
2022/07/28 13:36:34;;;;;;;;;;;30.20;99.90;;;;;;5122391;27;19962;-70
2022/07/28 13:38:59;;;;;;;;;;;30.10;99.90;;;;;;5112131;27;20335;-69
2022/07/28 13:41:25;;;;;;;;;;;29.80;99.90;;;;;;5113408;27;19911;-73
2022/07/28 13:43:51;;;;;;;;;;;29.60;99.90;;;;;;5128900;27;20326;-72
2022/07/28 13:46:17;;;;;;;;;;;29.70;99.90;;;;;;5121586;27;19915;-71
2022/07/28 13:48:43;;;;;;;;;;;30.10;99.90;;;;;;5103240;27;19951;-70
2022/07/28 13:51:12;;;;;;;;;;;30.00;99.90;;;;;;5095591;27;20046;-70
2022/07/28 13:53:39;;;;;;;;;;;30.10;99.90;;;;;;5122555;27;20281;-69
2022/07/28 13:56:05;;;;;;;;;;;30.10;99.90;;;;;;5111670;27;19911;-69
2022/07/28 13:58:30;;;;;;;;;;;29.90;99.90;;;;;;5120602;27;20384;-69
2022/07/28 14:00:56;;;;;;;;;;;29.80;99.90;;;;;;5111529;27;19915;-72
2022/07/28 14:03:22;;;;;;;;;;;29.90;99.90;;;;;;5111551;28;19911;-72
2022/07/28 14:05:47;;;;;;;;;;;30.00;99.90;;;;;;5102764;27;20403;-70
2022/07/28 14:08:18;;;;;;;;;;;30.00;99.90;;;;;;5120566;27;20365;-69
2022/07/28 14:10:47;;;;;;;;;;;30.10;99.90;;;;;;5109894;28;19915;-69
2022/07/28 14:13:12;;;;;;;;;;;30.00;99.90;;;;;;5111384;28;19912;-69
2022/07/28 14:15:38;;;;;;;;;;;29.90;99.90;;;;;;5111030;28;19911;-69
2022/07/28 14:18:04;;;;;;;;;;;30.10;99.90;;;;;;5123483;27;20001;-71
2022/07/28 14:20:30;;;;;;;;;;;30.10;99.90;;;;;;5104268;28;20393;-70